Time;durP1;ratioP1;P1;durP2;ratioP2;P2;SDS_P1;SDS_P2;PMS_P1;PMS_P2;Temp;Humidity;BMP_temperature;BMP_pressure;BME280_temperature;BME280_humidity;BME280_pressure;Samples;Min_cycle;Max_cycle;Signal;HPM_P1;HPM_P2
2022/05/01 00:00:13;;;;;;;7.55;4.68;;;5.20;99.90;;;;;;4879048;29;20048;-79
2022/05/01 00:02:38;;;;;;;7.18;4.13;;;5.10;99.90;;;;;;4880371;29;20573;-79
2022/05/01 00:05:04;;;;;;;7.25;4.55;;;5.00;99.90;;;;;;4880387;29;20053;-79
2022/05/01 00:07:32;;;;;;;7.75;4.85;;;5.00;99.90;;;;;;4880619;29;20044;-79
2022/05/01 00:09:57;;;;;;;9.75;4.82;;;5.00;99.90;;;;;;4880377;29;20056;-79
2022/05/01 00:12:23;;;;;;;8.45;5.90;;;5.00;99.90;;;;;;4880348;29;20045;-79
2022/05/01 00:14:49;;;;;;;7.85;4.85;;;4.90;99.90;;;;;;4863830;29;20053;-79
2022/05/01 00:17:14;;;;;;;8.38;4.95;;;4.90;99.90;;;;;;4878954;29;20486;-78
2022/05/01 00:19:40;;;;;;;7.20;5.13;;;4.90;99.90;;;;;;4880213;29;20064;-78
2022/05/01 00:22:05;;;;;;;8.68;5.20;;;4.90;99.90;;;;;;4880235;29;20045;-78
2022/05/01 00:24:32;;;;;;;7.95;5.57;;;4.90;99.90;;;;;;4880181;29;20045;-78
2022/05/01 00:26:59;;;;;;;9.38;5.47;;;4.80;99.90;;;;;;4879750;29;20406;-78
2022/05/01 00:29:25;;;;;;;8.65;5.40;;;4.70;99.90;;;;;;4880111;29;20060;-78
2022/05/01 00:31:51;;;;;;;9.65;5.85;;;4.70;99.90;;;;;;4880051;29;20045;-78
2022/05/01 00:37:00;;;;;;;11.77;6.18;;;4.60;99.90;;;;;;4879960;29;20116;-78
2022/05/01 00:39:26;;;;;;;10.00;6.13;;;4.70;99.90;;;;;;4879903;29;20048;-79
2022/05/01 00:41:52;;;;;;;13.13;5.90;;;4.70;99.90;;;;;;4878682;29;20489;-80
2022/05/01 00:44:18;;;;;;;9.43;6.18;;;4.70;99.90;;;;;;4878331;29;20133;-78
2022/05/01 00:46:46;;;;;;;8.93;6.28;;;4.60;99.90;;;;;;4879893;29;20052;-78
2022/05/01 00:49:14;;;;;;;9.38;5.93;;;4.60;99.90;;;;;;4879883;29;20053;-80
2022/05/01 00:51:44;;;;;;;9.05;5.50;;;4.60;99.90;;;;;;4863075;29;20052;-75
2022/05/01 00:54:11;;;;;;;11.02;6.32;;;4.50;99.90;;;;;;4863262;29;20049;-76
2022/05/01 00:56:40;;;;;;;8.70;5.75;;;4.60;99.90;;;;;;4879958;29;20154;-76
2022/05/01 00:59:06;;;;;;;10.00;6.00;;;4.50;99.90;;;;;;4863390;29;20052;-80
2022/05/01 01:01:33;;;;;;;8.55;5.78;;;4.50;99.90;;;;;;4879717;29;20053;-78
2022/05/01 01:03:59;;;;;;;8.82;6.15;;;4.50;99.90;;;;;;4863215;29;20121;-78
2022/05/01 01:06:25;;;;;;;9.02;6.10;;;4.40;99.90;;;;;;4879777;29;20482;-77
2022/05/01 01:08:51;;;;;;;8.32;5.50;;;4.40;99.90;;;;;;4879576;29;20041;-78
2022/05/01 01:11:16;;;;;;;9.07;5.63;;;4.40;99.90;;;;;;4863006;29;20084;-77
2022/05/01 01:13:43;;;;;;;9.15;5.28;;;4.40;99.90;;;;;;4863206;29;20077;-77
2022/05/01 01:16:09;;;;;;;8.93;5.80;;;4.40;99.90;;;;;;4862677;29;20048;-78
2022/05/01 01:18:35;;;;;;;8.48;5.35;;;4.40;99.90;;;;;;4862764;29;20504;-78
2022/05/01 01:21:01;;;;;;;9.40;5.10;;;4.50;99.90;;;;;;4879407;29;20041;-78
2022/05/01 01:23:29;;;;;;;8.18;5.57;;;4.50;99.90;;;;;;4862832;29;20053;-78
2022/05/01 01:25:55;;;;;;;8.85;5.90;;;4.50;99.90;;;;;;4879557;29;20045;-78
2022/05/01 01:28:21;;;;;;;9.15;5.82;;;4.50;99.90;;;;;;4863076;29;20071;-78
2022/05/01 01:33:33;;;;;;;11.88;7.00;;;4.70;99.90;;;;;;4879539;29;20100;-78
2022/05/01 01:36:03;;;;;;;11.05;7.72;;;4.70;99.90;;;;;;4879368;29;20080;-78
2022/05/01 01:38:28;;;;;;;12.57;8.45;;;4.80;99.90;;;;;;4880227;29;20061;-78
2022/05/01 01:40:56;;;;;;;13.43;8.45;;;4.90;99.90;;;;;;4882898;29;20052;-78
2022/05/01 01:43:29;;;;;;;11.57;8.38;;;4.90;99.90;;;;;;4882706;29;20067;-78
2022/05/01 01:45:58;;;;;;;17.83;9.98;;;5.00;99.90;;;;;;4866295;29;20077;-78
2022/05/01 01:48:24;;;;;;;15.25;9.50;;;5.10;99.90;;;;;;4882834;29;20036;-78
2022/05/01 01:50:58;;;;;;;16.17;10.65;;;5.20;99.90;;;;;;4866072;29;20109;-78
2022/05/01 01:53:25;;;;;;;17.27;11.32;;;5.20;99.90;;;;;;4882720;29;20091;-78
2022/05/01 01:55:51;;;;;;;15.90;11.32;;;5.30;99.90;;;;;;4882417;29;20081;-78
2022/05/01 01:58:18;;;;;;;18.23;11.23;;;5.30;99.90;;;;;;4865746;29;20096;-77
2022/05/01 02:00:44;;;;;;;16.77;11.63;;;5.30;99.90;;;;;;4881574;29;20088;-78
2022/05/01 02:03:10;;;;;;;21.15;11.18;;;5.40;99.90;;;;;;4865993;29;20112;-78
2022/05/01 02:05:37;;;;;;;21.08;12.27;;;5.40;99.90;;;;;;4882470;29;20053;-77
2022/05/01 02:08:06;;;;;;;21.27;13.20;;;5.40;99.90;;;;;;4865955;29;20398;-79
2022/05/01 02:10:33;;;;;;;19.92;13.00;;;5.50;99.90;;;;;;4882675;29;20059;-78
2022/05/01 02:13:00;;;;;;;18.45;12.68;;;5.60;99.90;;;;;;4882416;29;20049;-78
2022/05/01 02:15:30;;;;;;;19.02;12.25;;;5.60;99.90;;;;;;4882397;29;20052;-78
2022/05/01 02:17:58;;;;;;;15.82;10.98;;;5.60;99.90;;;;;;4882279;29;20056;-78
2022/05/01 02:20:25;;;;;;;14.98;10.15;;;5.60;99.90;;;;;;4882339;29;20053;-78
2022/05/01 02:22:50;;;;;;;15.95;9.82;;;5.50;99.90;;;;;;4881962;29;20489;-78
2022/05/01 02:25:16;;;;;;;14.63;9.82;;;5.40;99.90;;;;;;4882150;29;20056;-78
2022/05/01 02:27:42;;;;;;;16.13;10.30;;;5.30;99.90;;;;;;4882330;29;20140;-78
2022/05/01 02:30:08;;;;;;;19.35;10.52;;;5.20;99.90;;;;;;4882035;29;20040;-78
2022/05/01 02:32:38;;;;;;;16.35;10.20;;;5.30;99.90;;;;;;4865594;29;20453;-78
2022/05/01 02:35:08;;;;;;;17.42;9.95;;;5.20;99.90;;;;;;4865524;29;20136;-81
2022/05/01 02:37:35;;;;;;;15.15;10.02;;;5.20;99.90;;;;;;4881925;29;20053;-78
2022/05/01 02:40:01;;;;;;;19.60;11.60;;;5.10;99.90;;;;;;4881770;29;20490;-78
2022/05/01 02:42:27;;;;;;;14.57;10.32;;;5.10;99.90;;;;;;4881839;29;20049;-78
2022/05/01 02:44:53;;;;;;;16.95;10.50;;;5.10;99.90;;;;;;4881677;29;20049;-78
2022/05/01 02:47:18;;;;;;;15.73;10.80;;;5.00;99.90;;;;;;4882229;29;20053;-78
2022/05/01 02:49:44;;;;;;;14.02;9.48;;;5.00;99.90;;;;;;4881658;29;20379;-78
2022/05/01 02:52:10;;;;;;;15.25;9.88;;;4.90;99.90;;;;;;4864850;29;20091;-80
2022/05/01 02:54:35;;;;;;;13.75;9.23;;;4.80;99.90;;;;;;4881693;29;20049;-78
2022/05/01 02:57:02;;;;;;;13.40;9.75;;;4.80;99.90;;;;;;4880174;29;20405;-77
2022/05/01 02:59:28;;;;;;;14.85;10.02;;;4.70;99.90;;;;;;4864677;29;20447;-77
2022/05/01 03:01:57;;;;;;;16.40;10.80;;;4.60;99.90;;;;;;4880514;29;20048;-75
2022/05/01 03:04:24;;;;;;;15.23;10.68;;;4.60;99.90;;;;;;4881462;29;20085;-75
2022/05/01 03:06:50;;;;;;;16.45;9.60;;;4.60;99.90;;;;;;4880327;29;20075;-75
2022/05/01 03:09:15;;;;;;;16.67;10.52;;;4.50;99.90;;;;;;4864799;29;20434;-84
2022/05/01 03:11:41;;;;;;;15.77;11.10;;;4.50;99.90;;;;;;4864605;29;20501;-79
2022/05/01 03:14:09;;;;;;;16.77;10.25;;;4.50;99.90;;;;;;4881219;29;20053;-78
2022/05/01 03:16:35;;;;;;;15.05;10.38;;;4.40;99.90;;;;;;4881158;29;20053;-78
2022/05/01 03:24:31;;;;;;;15.35;10.25;;;4.30;99.90;;;;;;4881092;29;20101;-78
2022/05/01 03:26:57;;;;;;;14.57;10.18;;;4.20;99.90;;;;;;4864420;29;20049;-78
2022/05/01 03:29:23;;;;;;;14.85;10.63;;;4.20;99.90;;;;;;4880982;29;20076;-78
2022/05/01 03:31:50;;;;;;;15.52;9.95;;;4.20;99.90;;;;;;4881600;29;20045;-77
2022/05/01 03:34:17;;;;;;;15.00;10.68;;;4.10;99.90;;;;;;4880944;29;20060;-78
2022/05/01 03:36:44;;;;;;;14.55;10.57;;;4.10;99.90;;;;;;4880852;29;20072;-78
2022/05/01 03:39:10;;;;;;;17.38;10.80;;;4.10;99.90;;;;;;4880975;29;20065;-78
2022/05/01 03:41:36;;;;;;;15.40;10.68;;;4.10;99.90;;;;;;4864123;29;20052;-78
2022/05/01 03:44:01;;;;;;;14.85;9.68;;;4.10;99.90;;;;;;4880531;29;20525;-82
2022/05/01 03:46:27;;;;;;;16.23;11.02;;;4.10;99.90;;;;;;4880958;29;20117;-78
2022/05/01 03:48:53;;;;;;;14.80;10.77;;;4.10;99.90;;;;;;4863861;29;20049;-77
2022/05/01 03:51:18;;;;;;;15.00;10.43;;;4.10;99.90;;;;;;4879365;29;20051;-77
2022/05/01 03:53:47;;;;;;;16.27;11.10;;;4.10;99.90;;;;;;4863984;29;20049;-77
2022/05/01 03:56:13;;;;;;;17.08;10.60;;;4.10;99.90;;;;;;4879200;29;20044;-77
2022/05/01 03:58:39;;;;;;;17.33;11.20;;;4.10;99.90;;;;;;4878272;29;20053;-77
2022/05/01 04:01:04;;;;;;;15.30;10.40;;;4.10;99.90;;;;;;4879849;29;20508;-77
2022/05/01 04:03:30;;;;;;;18.42;10.98;;;4.10;99.90;;;;;;4880172;29;20049;-78
2022/05/01 04:05:56;;;;;;;17.25;11.60;;;4.10;99.90;;;;;;4878891;29;20057;-78
2022/05/01 04:08:22;;;;;;;16.80;11.07;;;4.10;99.90;;;;;;4863502;29;20136;-78
2022/05/01 04:10:49;;;;;;;19.08;10.77;;;4.10;99.90;;;;;;4880035;29;20057;-78
2022/05/01 04:13:15;;;;;;;18.67;11.18;;;4.10;99.90;;;;;;4863349;29;20516;-77
2022/05/01 04:15:41;;;;;;;16.83;11.10;;;4.10;99.90;;;;;;4863531;29;20075;-77
2022/05/01 04:18:08;;;;;;;16.92;11.13;;;4.10;99.90;;;;;;4880148;29;20048;-77
2022/05/01 04:20:38;;;;;;;16.70;11.38;;;4.10;99.90;;;;;;4863199;29;20056;-77
2022/05/01 04:23:06;;;;;;;16.92;11.30;;;4.10;99.90;;;;;;4878663;29;20052;-77
2022/05/01 04:25:31;;;;;;;16.13;10.38;;;4.10;99.90;;;;;;4879767;29;20052;-77
2022/05/01 04:28:00;;;;;;;17.48;10.95;;;4.10;99.90;;;;;;4863373;29;20044;-77
2022/05/01 04:30:27;;;;;;;16.58;10.07;;;4.20;99.90;;;;;;4878645;29;20089;-77
2022/05/01 04:32:59;;;;;;;17.05;11.07;;;4.20;99.90;;;;;;4863366;29;20072;-77
2022/05/01 04:35:45;;;;;;;17.02;10.85;;;4.20;99.90;;;;;;4878804;29;20075;-77
2022/05/01 04:38:19;;;;;;;14.90;10.68;;;4.30;99.90;;;;;;4862949;29;20064;-78
2022/05/01 04:40:47;;;;;;;18.67;11.23;;;4.30;99.90;;;;;;4863059;29;20053;-77
2022/05/01 04:43:19;;;;;;;17.80;10.50;;;4.40;99.90;;;;;;4863022;29;20057;-78
2022/05/01 04:45:47;;;;;;;19.27;11.63;;;4.50;99.90;;;;;;4879946;29;20041;-77
2022/05/01 04:48:14;;;;;;;17.10;10.68;;;4.50;99.90;;;;;;4879836;29;20048;-77
2022/05/01 04:50:40;;;;;;;17.80;10.98;;;4.60;99.90;;;;;;4879723;29;20037;-78
2022/05/01 04:53:09;;;;;;;18.35;11.45;;;4.70;99.90;;;;;;4862839;29;20057;-78
2022/05/01 04:55:36;;;;;;;20.35;11.13;;;4.70;99.90;;;;;;4879527;29;20074;-78
2022/05/01 04:58:02;;;;;;;17.05;10.82;;;4.80;99.90;;;;;;4879689;29;20132;-78
2022/05/01 05:00:28;;;;;;;17.85;10.05;;;4.80;99.90;;;;;;4879676;29;20124;-78
2022/05/01 05:02:58;;;;;;;17.67;11.23;;;4.90;99.90;;;;;;4879584;29;20466;-78
2022/05/01 05:05:26;;;;;;;15.70;10.68;;;5.00;99.90;;;;;;4862805;29;20049;-78
2022/05/01 05:07:52;;;;;;;15.95;11.38;;;5.00;99.90;;;;;;4878278;29;20083;-78
2022/05/01 05:10:18;;;;;;;15.95;10.98;;;5.10;99.90;;;;;;4879612;29;20077;-78
2022/05/01 05:12:46;;;;;;;17.08;11.23;;;5.20;99.90;;;;;;4862707;29;20451;-78
2022/05/01 05:15:15;;;;;;;18.02;10.95;;;5.30;99.90;;;;;;4882921;29;20048;-78
2022/05/01 05:17:42;;;;;;;18.40;12.35;;;5.30;99.90;;;;;;4866455;29;20104;-78
2022/05/01 05:20:09;;;;;;;18.17;11.20;;;5.40;99.90;;;;;;4866600;29;20088;-78
2022/05/01 05:22:35;;;;;;;16.55;11.85;;;5.40;99.90;;;;;;4882028;29;20089;-78
2022/05/01 05:25:03;;;;;;;17.98;12.43;;;5.50;99.90;;;;;;4881967;29;20049;-78
2022/05/01 05:27:28;;;;;;;15.98;11.00;;;5.50;99.90;;;;;;4883016;29;20052;-78
2022/05/01 05:29:57;;;;;;;17.05;11.43;;;5.60;99.90;;;;;;4882820;29;20089;-77
2022/05/01 05:32:25;;;;;;;16.95;11.57;;;5.60;99.90;;;;;;4882833;29;20060;-78
2022/05/01 05:34:51;;;;;;;15.10;11.20;;;5.70;99.90;;;;;;4882989;29;20116;-77
2022/05/01 05:37:18;;;;;;;14.73;10.45;;;5.70;99.90;;;;;;4866105;29;20128;-78
2022/05/01 05:39:45;;;;;;;16.00;10.38;;;5.80;99.90;;;;;;4866076;29;20509;-78
2022/05/01 05:42:11;;;;;;;16.80;10.52;;;5.80;99.90;;;;;;4882769;29;20048;-78
2022/05/01 05:44:38;;;;;;;16.70;11.50;;;5.90;99.90;;;;;;4882536;29;20079;-78
2022/05/01 05:47:04;;;;;;;17.33;11.48;;;5.90;99.90;;;;;;4866226;29;20108;-78
2022/05/01 05:49:31;;;;;;;17.25;11.82;;;6.00;99.90;;;;;;4881630;29;20105;-78
2022/05/01 05:51:58;;;;;;;17.00;12.18;;;6.10;99.90;;;;;;4882784;29;20053;-78
2022/05/01 05:54:24;;;;;;;16.83;11.77;;;6.20;99.90;;;;;;4866445;29;20458;-78
2022/05/01 05:56:49;;;;;;;16.30;11.80;;;6.30;99.90;;;;;;4882427;29;20135;-78
2022/05/01 05:59:15;;;;;;;18.75;12.68;;;6.50;99.90;;;;;;4882597;29;20091;-78
2022/05/01 06:01:41;;;;;;;19.75;12.95;;;6.60;99.90;;;;;;4882551;29;20394;-78
2022/05/01 06:04:07;;;;;;;23.30;14.60;;;6.70;99.90;;;;;;4865613;29;20124;-81
2022/05/01 06:06:34;;;;;;;20.17;13.55;;;6.80;99.90;;;;;;4865833;29;20189;-78
2022/05/01 06:09:00;;;;;;;24.38;14.27;;;6.90;99.90;;;;;;4865522;29;20053;-79
2022/05/01 06:11:26;;;;;;;20.92;14.02;;;7.00;99.90;;;;;;4882446;29;20128;-78
2022/05/01 06:13:53;;;;;;;19.40;13.20;;;7.10;99.90;;;;;;4882312;29;20041;-78
2022/05/01 06:16:18;;;;;;;21.15;14.07;;;7.20;99.90;;;;;;4882058;29;20490;-78
2022/05/01 06:18:44;;;;;;;19.38;14.25;;;7.30;99.90;;;;;;4881095;29;20049;-79
2022/05/01 06:21:11;;;;;;;23.38;15.23;;;7.40;99.90;;;;;;4865298;29;20055;-79
2022/05/01 06:23:37;;;;;;;26.92;17.33;;;7.60;99.90;;;;;;4881567;29;20057;-79
2022/05/01 06:26:05;;;;;;;22.83;15.55;;;7.80;99.90;;;;;;4864815;29;20045;-79
2022/05/01 06:28:31;;;;;;;18.63;13.68;;;7.90;99.90;;;;;;4880897;29;20088;-79
2022/05/01 06:30:58;;;;;;;17.77;13.02;;;8.00;99.90;;;;;;4882091;29;20071;-79
2022/05/01 06:33:24;;;;;;;20.02;12.55;;;8.10;99.90;;;;;;4865153;29;20049;-79
2022/05/01 06:35:53;;;;;;;20.08;14.13;;;8.30;99.90;;;;;;4880536;29;20063;-78
2022/05/01 06:38:18;;;;;;;15.77;11.65;;;8.50;99.90;;;;;;4881868;29;20056;-82
2022/05/01 06:40:45;;;;;;;15.30;11.20;;;8.60;99.90;;;;;;4864923;29;20048;-83
2022/05/01 06:43:11;;;;;;;13.93;9.73;;;8.60;99.90;;;;;;4864951;29;20053;-79
2022/05/01 06:45:37;;;;;;;17.63;11.63;;;8.70;99.90;;;;;;4881812;29;20045;-85
2022/05/01 06:48:03;;;;;;;17.02;11.38;;;8.80;99.90;;;;;;4865072;29;20057;-84
2022/05/01 06:50:30;;;;;;;15.90;11.13;;;8.90;99.90;;;;;;4864810;29;20052;-81
2022/05/01 06:52:56;;;;;;;16.50;11.05;;;9.00;99.90;;;;;;4881619;29;20056;-77
2022/05/01 06:55:25;;;;;;;13.85;9.50;;;9.10;99.90;;;;;;4881455;29;20049;-76
2022/05/01 06:57:52;;;;;;;13.23;9.13;;;9.10;99.90;;;;;;4881459;29;20059;-76
2022/05/01 07:00:18;;;;;;;16.85;8.52;;;9.20;99.90;;;;;;4881315;29;20454;-75
2022/05/01 07:02:52;;;;;;;13.10;8.35;;;9.20;99.90;;;;;;4881481;29;20177;-74
2022/05/01 07:05:19;;;;;;;9.82;7.00;;;9.40;99.90;;;;;;4881347;29;20068;-74
2022/05/01 07:07:46;;;;;;;10.60;6.90;;;9.50;99.90;;;;;;4884754;29;20509;-75
2022/05/01 07:10:12;;;;;;;10.68;7.28;;;9.60;99.90;;;;;;4870246;29;20493;-75
2022/05/01 07:12:38;;;;;;;10.27;6.25;;;9.80;99.90;;;;;;4880909;29;20048;-75
2022/05/01 07:15:05;;;;;;;9.88;6.35;;;9.90;99.90;;;;;;4881084;29;20398;-75
2022/05/01 07:17:32;;;;;;;10.18;6.28;;;9.90;99.90;;;;;;4881021;29;20052;-75
2022/05/01 07:19:57;;;;;;;8.25;5.05;;;10.00;99.90;;;;;;4880980;29;20045;-75
2022/05/01 07:22:23;;;;;;;8.63;5.70;;;10.00;99.90;;;;;;4864243;29;20055;-75
2022/05/01 07:24:49;;;;;;;7.45;5.43;;;10.00;99.90;;;;;;4880850;29;20124;-75
2022/05/01 07:27:14;;;;;;;9.38;5.70;;;10.00;99.90;;;;;;4863946;29;20089;-75
2022/05/01 07:29:40;;;;;;;9.10;5.20;;;9.90;99.90;;;;;;4863858;29;20097;-76
2022/05/01 07:32:06;;;;;;;7.30;5.00;;;10.00;99.90;;;;;;4880787;29;20120;-75
2022/05/01 07:34:32;;;;;;;8.57;5.72;;;10.10;99.90;;;;;;4864016;29;20053;-79
2022/05/01 07:36:57;;;;;;;9.75;6.07;;;10.40;99.90;;;;;;4863285;29;20056;-81
2022/05/01 07:39:23;;;;;;;9.45;5.93;;;10.60;99.90;;;;;;4863696;29;20045;-78
2022/05/01 07:41:49;;;;;;;9.35;5.70;;;10.90;99.90;;;;;;4880418;29;20053;-78
2022/05/01 07:44:14;;;;;;;7.60;4.95;;;11.10;99.90;;;;;;4880239;29;20052;-78
2022/05/01 07:46:41;;;;;;;8.88;5.55;;;11.30;99.90;;;;;;4880575;29;20118;-77
2022/05/01 07:49:10;;;;;;;11.30;5.50;;;11.40;99.90;;;;;;4880473;29;20045;-78
2022/05/01 07:51:36;;;;;;;7.85;5.70;;;11.40;99.90;;;;;;4880451;29;20084;-79
2022/05/01 07:54:02;;;;;;;8.45;4.40;;;11.50;99.90;;;;;;4880370;29;20063;-78
2022/05/01 07:56:28;;;;;;;7.78;4.80;;;11.70;99.90;;;;;;4863413;29;20055;-77
2022/05/01 07:58:55;;;;;;;6.90;4.53;;;11.80;99.90;;;;;;4863369;29;20049;-77
2022/05/01 08:01:20;;;;;;;8.50;4.68;;;11.70;99.90;;;;;;4880049;29;20649;-78
2022/05/01 08:06:30;;;;;;;7.80;4.60;;;11.60;99.90;;;;;;4863214;29;20064;-77
2022/05/01 08:08:56;;;;;;;7.50;4.68;;;11.80;99.90;;;;;;4863656;29;20060;-78
2022/05/01 08:11:22;;;;;;;6.68;4.57;;;11.80;99.90;;;;;;4863454;29;20056;-77
2022/05/01 08:13:48;;;;;;;8.10;4.90;;;11.80;99.90;;;;;;4880034;29;20059;-78
2022/05/01 08:16:13;;;;;;;6.10;3.90;;;11.70;99.90;;;;;;4880045;29;20147;-78
2022/05/01 08:21:23;;;;;;;4.38;3.25;;;11.80;99.90;;;;;;4879999;29;20128;-77
2022/05/01 08:23:50;;;;;;;6.63;4.03;;;11.70;99.90;;;;;;4879812;29;20473;-79
2022/05/01 08:26:17;;;;;;;5.85;3.58;;;11.50;99.90;;;;;;4879624;29;20557;-78
2022/05/01 08:28:44;;;;;;;4.93;3.50;;;11.50;99.90;;;;;;4879966;29;20053;-78
2022/05/01 08:31:10;;;;;;;6.82;3.83;;;11.70;99.90;;;;;;4879843;29;20052;-78
2022/05/01 08:33:37;;;;;;;4.20;3.15;;;11.70;99.90;;;;;;4879534;29;20053;-78
2022/05/01 08:36:05;;;;;;;5.63;3.72;;;11.70;99.90;;;;;;4863110;29;20059;-78
2022/05/01 08:38:31;;;;;;;7.82;3.63;;;11.80;99.90;;;;;;4862650;29;20398;-78
2022/05/01 08:40:57;;;;;;;5.43;3.22;;;11.70;99.90;;;;;;4890058;29;20072;-78
2022/05/01 08:43:24;;;;;;;4.78;3.30;;;11.70;99.90;;;;;;4898123;29;20057;-78
2022/05/01 08:45:53;;;;;;;6.53;3.63;;;11.70;99.90;;;;;;4898242;29;20060;-78
2022/05/01 08:48:56;;;;;;;5.72;3.30;;;11.90;99.90;;;;;;4897977;29;20070;-78
2022/05/01 08:51:23;;;;;;;4.47;2.80;;;11.90;99.90;;;;;;4881523;29;20450;-77
2022/05/01 08:53:50;;;;;;;6.90;3.20;;;12.20;99.90;;;;;;4898237;29;20056;-77
2022/05/01 08:56:18;;;;;;;6.05;3.85;;;12.20;99.90;;;;;;4897857;29;20056;-77
2022/05/01 08:58:44;;;;;;;4.47;3.10;;;12.20;99.90;;;;;;4898187;29;20049;-77
2022/05/01 09:01:11;;;;;;;5.78;3.30;;;12.40;99.90;;;;;;4881175;29;20048;-77
2022/05/01 09:03:39;;;;;;;4.28;2.95;;;12.50;99.90;;;;;;4898249;29;20127;-77
2022/05/01 09:06:05;;;;;;;5.28;3.22;;;12.50;99.90;;;;;;4881438;29;20049;-77
2022/05/01 09:08:31;;;;;;;5.05;3.70;;;12.60;99.90;;;;;;4881064;29;20064;-77
2022/05/01 09:12:49;;;;;;;5.68;3.40;;;12.60;99.90;;;;;;4880153;29;20048;-77
2022/05/01 09:13:44;;;;;;;4.95;3.53;;;12.70;99.90;;;;;;4880611;29;20049;-78
2022/05/01 09:16:11;;;;;;;4.93;3.38;;;12.60;99.90;;;;;;4881218;29;20052;-77
2022/05/01 09:18:45;;;;;;;5.55;3.50;;;12.50;99.90;;;;;;4880996;29;20104;-77
2022/05/01 09:21:11;;;;;;;5.97;3.17;;;12.60;99.90;;;;;;4875229;29;20080;-77
2022/05/01 09:23:44;;;;;;;4.13;3.15;;;12.60;99.90;;;;;;4897889;29;20045;-77
2022/05/01 09:26:15;;;;;;;5.55;3.28;;;12.70;99.90;;;;;;4881031;29;20489;-76
2022/05/01 09:28:52;;;;;;;6.28;3.20;;;12.60;99.90;;;;;;4881017;29;20408;-76
2022/05/01 09:31:41;;;;;;;7.38;3.53;;;12.60;99.90;;;;;;4897736;29;20382;-78
2022/05/01 09:34:23;;;;;;;5.88;3.15;;;12.70;99.90;;;;;;4881180;29;20449;-79
2022/05/01 09:36:50;;;;;;;7.03;2.77;;;12.90;99.90;;;;;;4875416;29;20045;-78
2022/05/01 09:39:30;;;;;;;4.53;3.10;;;12.90;99.90;;;;;;4897647;29;20303;-78
2022/05/01 09:42:13;;;;;;;4.18;3.03;;;13.00;99.90;;;;;;4897106;29;20097;-78
2022/05/01 09:44:38;;;;;;;5.28;3.22;;;13.10;99.90;;;;;;4890316;29;20135;-78
2022/05/01 09:47:07;;;;;;;5.13;2.92;;;13.10;99.90;;;;;;4896635;29;20140;-78
2022/05/01 09:49:48;;;;;;;4.47;2.55;;;13.20;99.90;;;;;;4896660;29;20056;-78
2022/05/01 09:52:15;;;;;;;5.95;3.20;;;13.10;99.90;;;;;;4896399;29;20478;-78
2022/05/01 09:55:00;;;;;;;3.88;2.60;;;13.20;99.90;;;;;;4896533;29;20057;-78
2022/05/01 09:57:25;;;;;;;4.78;2.88;;;13.30;99.90;;;;;;4897780;29;20052;-79
2022/05/01 09:59:51;;;;;;;5.38;3.00;;;13.30;99.90;;;;;;4899067;29;20041;-77
2022/05/01 10:02:28;;;;;;;5.20;2.75;;;13.50;99.90;;;;;;4899919;29;20098;-78
2022/05/01 10:04:56;;;;;;;4.80;2.60;;;13.40;99.90;;;;;;4899684;29;20127;-77
2022/05/01 10:07:22;;;;;;;4.68;2.92;;;13.30;99.90;;;;;;4899503;29;20127;-78
2022/05/01 10:09:50;;;;;;;4.80;2.65;;;13.20;99.90;;;;;;4899273;29;20050;-77
2022/05/01 10:12:17;;;;;;;4.80;2.08;;;13.30;99.90;;;;;;4900747;29;20044;-78
2022/05/01 10:14:43;;;;;;;3.75;2.45;;;13.20;99.90;;;;;;4883081;29;20052;-79
2022/05/01 10:17:09;;;;;;;3.60;2.38;;;13.10;99.90;;;;;;4883580;29;20053;-79
2022/05/01 10:19:35;;;;;;;5.40;3.15;;;13.30;99.90;;;;;;4884027;29;20056;-80
2022/05/01 10:22:03;;;;;;;5.60;2.22;;;13.40;99.90;;;;;;4900781;29;20080;-79
2022/05/01 10:24:29;;;;;;;5.38;2.80;;;13.60;99.90;;;;;;4900363;29;20044;-79
2022/05/01 10:27:10;;;;;;;5.43;2.42;;;13.80;99.90;;;;;;4883612;29;20060;-78
2022/05/01 10:32:54;;;;;;;3.90;2.42;;;13.80;99.90;;;;;;4883536;29;20417;-79
2022/05/01 10:35:57;;;;;;;5.72;3.00;;;14.10;99.90;;;;;;4900364;29;20112;-79
2022/05/01 10:38:40;;;;;;;4.07;2.55;;;14.00;99.90;;;;;;4883343;29;20063;-76
2022/05/01 10:41:07;;;;;;;4.78;2.40;;;14.10;99.90;;;;;;4900449;29;20548;-79
2022/05/01 10:43:36;;;;;;;4.72;2.78;;;13.90;99.90;;;;;;4883157;29;20072;-79
2022/05/01 10:46:20;;;;;;;5.47;3.05;;;13.90;99.90;;;;;;4900342;29;20075;-79
2022/05/01 10:48:46;;;;;;;4.68;2.42;;;14.00;99.90;;;;;;4900113;29;20438;-79
2022/05/01 10:51:30;;;;;;;4.18;2.70;;;14.30;99.90;;;;;;4900024;29;20048;-79
2022/05/01 10:54:13;;;;;;;4.15;2.78;;;14.40;99.90;;;;;;4899969;29;20469;-78
2022/05/01 10:56:41;;;;;;;5.20;2.53;;;14.30;99.90;;;;;;4900038;29;20045;-79
2022/05/01 10:59:30;;;;;;;3.92;2.60;;;14.60;99.90;;;;;;4883147;29;20091;-79
2022/05/01 11:01:58;;;;;;;4.47;2.35;;;14.60;99.90;;;;;;4883012;29;20052;-78
2022/05/01 11:04:24;;;;;;;4.00;2.60;;;14.70;99.90;;;;;;4899766;29;20045;-78
2022/05/01 11:06:55;;;;;;;4.07;2.30;;;15.00;99.90;;;;;;4899790;29;20097;-79
2022/05/01 11:09:25;;;;;;;4.70;2.40;;;15.10;99.90;;;;;;4900021;29;20131;-79
2022/05/01 11:11:56;;;;;;;3.88;2.70;;;15.20;99.90;;;;;;4898476;29;20060;-79
2022/05/01 11:14:57;;;;;;;4.05;2.65;;;15.20;99.90;;;;;;4899543;29;20458;-79
2022/05/01 11:17:48;;;;;;;6.30;2.80;;;15.30;99.90;;;;;;4882646;29;20059;-78
2022/05/01 11:20:21;;;;;;;3.67;2.47;;;15.20;99.90;;;;;;4882902;29;20448;-78
2022/05/01 11:22:47;;;;;;;5.32;2.80;;;15.30;99.90;;;;;;4882618;29;20064;-78
2022/05/01 11:25:36;;;;;;;6.32;2.92;;;15.40;99.90;;;;;;4882692;29;20044;-79
2022/05/01 11:28:02;;;;;;;4.07;3.10;;;15.20;99.90;;;;;;4882792;29;20049;-79
2022/05/01 11:30:33;;;;;;;6.25;3.42;;;15.30;99.90;;;;;;4882461;29;20519;-79
2022/05/01 11:33:09;;;;;;;4.88;3.20;;;15.10;99.90;;;;;;4882746;29;20056;-79
2022/05/01 11:35:56;;;;;;;4.47;3.00;;;15.40;99.90;;;;;;4882409;29;20092;-79
2022/05/01 11:38:37;;;;;;;5.07;2.80;;;15.50;99.90;;;;;;4882308;29;20052;-79
2022/05/01 11:41:04;;;;;;;4.35;3.22;;;15.50;99.90;;;;;;4882486;29;20100;-79
2022/05/01 11:43:31;;;;;;;5.20;3.10;;;15.20;99.90;;;;;;4882119;29;20120;-79
2022/05/01 11:46:02;;;;;;;6.25;2.50;;;15.40;99.90;;;;;;4882239;29;20067;-79
2022/05/01 11:48:28;;;;;;;4.90;2.88;;;15.40;99.90;;;;;;4882255;29;20100;-79
2022/05/01 11:50:58;;;;;;;3.30;2.30;;;15.50;99.90;;;;;;4882074;29;20049;-79
2022/05/01 11:53:33;;;;;;;5.70;3.03;;;15.50;99.90;;;;;;4881987;29;20461;-80
2022/05/01 12:04:43;;;;;;;4.13;2.83;;;16.00;99.90;;;;;;4881822;29;20395;-79
2022/05/01 12:07:29;;;;;;;4.88;3.10;;;15.80;99.90;;;;;;4882397;29;20057;-79
2022/05/01 12:09:55;;;;;;;4.18;2.58;;;15.40;99.90;;;;;;4882089;29;20060;-76
2022/05/01 12:12:26;;;;;;;4.03;2.72;;;15.10;99.90;;;;;;4898553;29;20472;-76
2022/05/01 12:14:51;;;;;;;4.18;2.08;;;14.80;99.90;;;;;;4881656;29;20060;-76
2022/05/01 12:17:21;;;;;;;3.83;2.33;;;15.00;99.90;;;;;;4898672;29;20048;-75
2022/05/01 12:19:48;;;;;;;4.55;2.08;;;14.80;99.90;;;;;;4881597;29;20124;-75
2022/05/01 12:22:19;;;;;;;4.25;2.30;;;14.70;99.90;;;;;;4898381;29;20045;-75
2022/05/01 12:24:46;;;;;;;4.30;2.35;;;14.90;99.90;;;;;;4881596;29;20048;-75
2022/05/01 12:27:13;;;;;;;4.78;2.05;;;14.60;99.90;;;;;;4898380;29;20545;-76
2022/05/01 12:29:47;;;;;;;4.80;2.70;;;14.50;99.90;;;;;;4881707;29;20052;-76
2022/05/01 12:32:14;;;;;;;4.25;2.33;;;14.20;99.90;;;;;;4881086;29;20402;-76
2022/05/01 12:34:52;;;;;;;5.00;2.45;;;13.90;99.90;;;;;;4881753;29;20078;-76
2022/05/01 12:37:20;;;;;;;3.80;2.70;;;14.20;99.90;;;;;;4881493;29;20135;-76
2022/05/01 12:40:12;;;;;;;5.07;2.75;;;14.20;99.90;;;;;;4881623;29;20048;-75
2022/05/01 12:45:45;;;;;;;4.85;2.67;;;14.10;99.90;;;;;;4881448;29;20075;-76
2022/05/01 12:48:13;;;;;;;4.35;2.42;;;14.00;99.90;;;;;;4895933;29;20081;-76
2022/05/01 12:50:40;;;;;;;3.83;2.40;;;13.70;99.90;;;;;;4898191;29;20078;-75
2022/05/01 12:53:29;;;;;;;3.58;2.20;;;14.10;99.90;;;;;;4897999;29;20044;-76
2022/05/01 12:56:02;;;;;;;3.85;2.40;;;14.00;99.90;;;;;;4881146;29;20048;-76
2022/05/01 12:58:35;;;;;;;5.05;2.30;;;13.50;99.90;;;;;;4881269;29;20056;-75
2022/05/01 13:01:04;;;;;;;4.13;2.65;;;13.50;99.90;;;;;;4880763;29;20426;-76
2022/05/01 13:03:37;;;;;;;5.80;2.50;;;13.60;99.90;;;;;;4881137;29;20060;-75
2022/05/01 13:06:14;;;;;;;3.90;2.53;;;13.90;99.90;;;;;;4881350;29;20040;-75
2022/05/01 13:08:42;;;;;;;4.22;2.30;;;13.80;99.90;;;;;;4881093;29;20058;-75
2022/05/01 13:11:14;;;;;;;5.50;3.45;;;13.80;99.90;;;;;;4881471;29;20497;-75
2022/05/01 13:13:59;;;;;;;6.22;2.60;;;13.90;99.90;;;;;;4898047;29;20453;-75
2022/05/01 13:16:40;;;;;;;3.28;2.30;;;13.70;99.90;;;;;;4881143;29;20489;-75
2022/05/01 13:19:10;;;;;;;4.20;2.78;;;13.90;99.90;;;;;;4881031;29;20053;-76
2022/05/01 13:21:44;;;;;;;3.78;2.38;;;14.20;99.90;;;;;;4881314;29;20047;-76
2022/05/01 13:24:18;;;;;;;4.90;2.38;;;14.40;99.90;;;;;;4881145;29;20052;-75